createdAt,value
2022-11-01T00:02:00.258Z,95816.06
2022-11-01T00:04:27.052Z,95813.97
2022-11-01T00:06:53.845Z,95820.44
2022-11-01T00:09:21.162Z,95822.34
2022-11-01T00:11:48.266Z,95821.00
2022-11-01T00:14:16.831Z,95825.50
2022-11-01T00:16:43.808Z,95811.53
2022-11-01T00:19:11.355Z,95823.59
2022-11-01T00:21:38.131Z,95824.63
2022-11-01T00:24:05.531Z,95817.41
2022-11-01T00:26:32.309Z,95822.75
2022-11-01T00:28:59.293Z,95827.59
2022-11-01T00:31:26.024Z,95823.84
2022-11-01T00:33:52.885Z,95825.28
2022-11-01T00:36:19.713Z,95828.22
2022-11-01T00:38:50.791Z,95827.63
2022-11-01T00:41:19.461Z,95826.06
2022-11-01T00:43:46.640Z,95822.66
2022-11-01T00:46:13.395Z,95821.03
2022-11-01T00:48:40.226Z,95826.59
2022-11-01T00:51:07.006Z,95828.19
2022-11-01T00:53:33.916Z,95829.25
2022-11-01T00:56:05.868Z,95830.03
2022-11-01T00:58:32.692Z,95828.97
2022-11-01T01:00:59.927Z,95826.06
2022-11-01T01:03:26.833Z,95815.50
2022-11-01T01:05:54.358Z,95828.47
2022-11-01T01:08:21.819Z,95834.03
2022-11-01T01:10:48.829Z,95818.72
2022-11-01T01:13:15.609Z,95815.78
2022-11-01T01:15:42.415Z,95817.38
2022-11-01T01:18:09.758Z,95823.94
2022-11-01T01:20:37.155Z,95828.19
2022-11-01T01:23:04.751Z,95824.47
2022-11-01T01:25:31.834Z,95834.03
2022-11-01T01:27:58.882Z,95816.56
2022-11-01T01:30:25.845Z,95821.31
2022-11-01T01:32:52.556Z,95828.47
2022-11-01T01:35:19.358Z,95830.84
2022-11-01T01:37:46.036Z,95821.06
2022-11-01T01:40:12.713Z,95829.03
2022-11-01T01:42:41.894Z,95831.41
2022-11-01T01:45:20.182Z,95825.84
2022-11-01T01:47:51.659Z,95828.75
2022-11-01T01:50:42.037Z,95834.06
2022-11-01T01:53:12.774Z,95832.47
2022-11-01T01:55:51.218Z,95838.31
2022-11-01T01:58:22.194Z,95828.00
2022-11-01T02:00:49.638Z,95831.47
2022-11-01T02:03:16.815Z,95842.03
2022-11-01T02:08:43.891Z,95835.13
2022-11-01T02:11:11.968Z,95830.38
2022-11-01T02:13:39.147Z,95835.13
2022-11-01T02:16:26.281Z,95845.47
2022-11-01T02:19:34.642Z,95835.41
2022-11-01T02:22:10.063Z,95846.22
2022-11-01T02:25:03.706Z,95844.13
2022-11-01T02:27:53.558Z,95851.53
2022-11-01T02:30:21.657Z,95845.44
2022-11-01T02:33:09.498Z,95841.75
2022-11-01T02:36:02.815Z,95854.47
2022-11-01T02:38:38.805Z,95855.75
2022-11-01T02:41:23.757Z,95867.00
2022-11-01T02:44:00.197Z,95864.72
2022-11-01T02:46:49.438Z,95866.31
2022-11-01T02:49:19.359Z,95861.06
2022-11-01T02:51:47.263Z,95865.78
2022-11-01T02:54:23.466Z,95868.19
2022-11-01T02:56:50.900Z,95863.69
2022-11-01T02:59:26.593Z,95868.72
2022-11-01T03:02:06.944Z,95874.28
2022-11-01T03:04:35.281Z,95873.19
2022-11-01T03:07:07.502Z,95875.28
2022-11-01T03:09:36.181Z,95874.78
2022-11-01T03:12:08.205Z,95873.16
2022-11-01T03:14:57.757Z,95882.16
2022-11-01T03:17:41.516Z,95885.25
2022-11-01T03:20:18.326Z,95885.25
2022-11-01T03:22:49.482Z,95887.06
2022-11-01T03:25:39.711Z,95878.38
2022-11-01T03:28:12.663Z,95879.38
2022-11-01T03:30:44.908Z,95879.91
2022-11-01T03:33:14.839Z,95883.63
2022-11-01T03:35:46.554Z,95883.34
2022-11-01T03:38:19.363Z,95862.72
2022-11-01T03:40:53.986Z,95878.03
2022-11-01T03:43:26.445Z,95879.84
2022-11-01T03:45:54.703Z,95873.00
2022-11-01T03:48:21.573Z,95882.00
2022-11-01T03:50:50.068Z,95882.75
2022-11-01T03:53:16.990Z,95873.53
2022-11-01T03:55:44.086Z,95885.09
2022-11-01T03:58:11.551Z,95869.81
2022-11-01T04:00:41.953Z,95868.75
2022-11-01T04:03:10.906Z,95887.22
2022-11-01T04:05:40.737Z,95885.84
2022-11-01T04:08:08.617Z,95877.13
2022-11-01T04:10:35.922Z,95888.22
2022-11-01T04:13:03.929Z,95881.84
2022-11-01T04:15:49.326Z,95882.38
2022-11-01T04:18:41.441Z,95882.34
2022-11-01T04:21:11.470Z,95885.81
2022-11-01T04:23:38.548Z,95879.75
2022-11-01T04:26:06.650Z,95881.31
2022-11-01T04:28:33.650Z,95886.09
2022-11-01T04:31:00.404Z,95882.72
2022-11-01T04:33:27.047Z,95880.72
2022-11-01T04:35:53.915Z,95881.69
2022-11-01T04:38:20.593Z,95884.44
2022-11-01T04:40:47.264Z,95881.28
2022-11-01T04:43:14.042Z,95881.78
2022-11-01T04:45:40.892Z,95893.34
2022-11-01T04:48:13.578Z,95886.47
2022-11-01T04:50:41.984Z,95883.13
2022-11-01T04:53:09.798Z,95892.47
2022-11-01T04:55:36.755Z,95894.56
2022-11-01T04:58:04.502Z,95895.25
2022-11-01T05:00:33.274Z,95900.56
2022-11-01T05:03:02.601Z,95896.44
2022-11-01T05:05:30.006Z,95900.88
2022-11-01T05:08:09.955Z,95901.72
2022-11-01T05:10:39.429Z,95894.31
2022-11-01T05:13:06.680Z,95899.63
2022-11-01T05:15:40.251Z,95906.78
2022-11-01T05:18:14.806Z,95907.63
2022-11-01T05:20:41.534Z,95912.13
2022-11-01T05:23:09.131Z,95904.88
2022-11-01T05:25:38.136Z,95917.00
2022-11-01T05:28:08.634Z,95920.50
2022-11-01T05:30:36.793Z,95919.75
2022-11-01T05:33:05.548Z,95924.47
2022-11-01T05:35:34.094Z,95925.28
2022-11-01T05:38:02.277Z,95922.34
2022-11-01T05:40:29.802Z,95927.00
2022-11-01T05:42:57.623Z,95929.44
2022-11-01T05:45:24.635Z,95917.63
2022-11-01T05:47:51.514Z,95932.88
2022-11-01T05:50:18.385Z,95937.88
2022-11-01T05:52:45.470Z,95940.03
2022-11-01T05:55:12.616Z,95945.78
2022-11-01T05:57:39.534Z,95941.53
2022-11-01T06:00:06.922Z,95943.34
2022-11-01T06:02:39.505Z,95927.75
2022-11-01T06:05:06.638Z,95950.94
2022-11-01T06:07:35.811Z,95946.28
2022-11-01T06:10:04.163Z,95952.44
2022-11-01T06:12:30.898Z,95955.03
2022-11-01T06:14:57.979Z,95949.06
2022-11-01T06:17:24.989Z,95955.84
2022-11-01T06:19:51.785Z,95956.56
2022-11-01T06:22:18.589Z,95959.03
2022-11-01T06:24:45.664Z,95958.81
2022-11-01T06:27:12.882Z,95955.25
2022-11-01T06:29:39.719Z,95934.75
2022-11-01T06:32:06.571Z,95959.59
2022-11-01T06:34:33.729Z,95961.50
2022-11-01T06:37:01.033Z,95962.66
2022-11-01T06:39:27.850Z,95964.13
2022-11-01T06:41:54.897Z,95959.97
2022-11-01T06:44:22.187Z,95948.03
2022-11-01T06:46:49.816Z,95959.84
2022-11-01T06:49:19.079Z,95959.78
2022-11-01T06:51:47.088Z,95960.28
2022-11-01T06:54:14.291Z,95963.19
2022-11-01T06:56:41.445Z,95962.66
2022-11-01T06:59:08.678Z,95960.31
2022-11-01T07:01:35.759Z,95956.69
2022-11-01T07:04:02.759Z,95939.66
2022-11-01T07:06:31.018Z,95955.91
2022-11-01T07:09:01.036Z,95962.28
2022-11-01T07:11:31.490Z,95964.94
2022-11-01T07:13:59.504Z,95967.03
2022-11-01T07:16:27.360Z,95958.03
2022-11-01T07:18:54.669Z,95956.69
2022-11-01T07:21:21.861Z,95956.69
2022-11-01T07:23:49.143Z,95943.00
2022-11-01T07:26:16.164Z,95956.75
2022-11-01T07:28:42.949Z,95956.22
2022-11-01T07:31:09.709Z,95940.88
2022-11-01T07:33:36.546Z,95955.69
2022-11-01T07:36:04.398Z,95949.63
2022-11-01T07:38:31.468Z,95944.63
2022-11-01T07:40:58.566Z,95947.16
2022-11-01T07:43:25.369Z,95952.50
2022-11-01T07:45:52.132Z,95951.56
2022-11-01T07:48:20.294Z,95951.56
2022-11-01T07:50:47.201Z,95951.47
2022-11-01T07:53:16.713Z,95948.16
2022-11-01T07:55:44.711Z,95940.56
2022-11-01T07:58:12.234Z,95945.44
2022-11-01T08:00:40.310Z,95939.50
2022-11-01T08:03:10.684Z,95939.50
2022-11-01T08:05:38.867Z,95934.84
2022-11-01T08:08:06.956Z,95941.50
2022-11-01T08:10:34.927Z,95923.03
2022-11-01T08:13:23.042Z,95925.94
2022-11-01T08:15:51.711Z,95930.34
2022-11-01T08:18:22.363Z,95925.34
2022-11-01T08:20:49.354Z,95919.50
2022-11-01T08:23:16.900Z,95923.56
2022-11-01T08:25:44.913Z,95917.22
2022-11-01T08:28:17.878Z,95919.19
2022-11-01T08:30:47.155Z,95919.97
2022-11-01T08:33:14.364Z,95911.59
2022-11-01T08:35:42.646Z,95897.97
2022-11-01T08:38:13.230Z,95905.56
2022-11-01T08:40:40.409Z,95901.81
2022-11-01T08:43:07.212Z,95897.31
2022-11-01T08:45:33.978Z,95904.59
2022-11-01T08:48:03.353Z,95896.88
2022-11-01T08:50:30.417Z,95889.06
2022-11-01T08:52:57.221Z,95896.09
2022-11-01T08:55:24.134Z,95890.94
2022-11-01T08:57:50.968Z,95894.88
2022-11-01T09:00:18.690Z,95886.34
2022-11-01T09:02:45.626Z,95896.75
2022-11-01T09:05:13.054Z,95885.00
2022-11-01T09:07:39.968Z,95876.72
2022-11-01T09:10:07.972Z,95875.22
2022-11-01T09:12:35.384Z,95881.94
2022-11-01T09:15:02.450Z,95873.31
2022-11-01T09:17:29.240Z,95874.28
2022-11-01T09:19:56.078Z,95877.44
2022-11-01T09:22:23.258Z,95873.28
2022-11-01T09:24:49.981Z,95864.06
2022-11-01T09:27:16.729Z,95846.41
2022-11-01T09:29:46.546Z,95858.31
2022-11-01T09:32:16.299Z,95855.53
2022-11-01T09:34:43.011Z,95851.94
2022-11-01T09:37:09.780Z,95841.03
2022-11-01T09:39:36.690Z,95844.81
2022-11-01T09:42:09.997Z,95845.16
2022-11-01T09:44:42.113Z,95845.91
2022-11-01T09:47:16.552Z,95842.00
2022-11-01T09:49:48.327Z,95839.06
2022-11-01T09:52:25.531Z,95828.22
2022-11-01T09:54:52.754Z,95819.53
2022-11-01T09:57:35.401Z,95824.25
2022-11-01T10:00:02.103Z,95823.47
2022-11-01T10:02:48.556Z,95825.75
2022-11-01T10:05:38.359Z,95820.88
2022-11-01T10:08:11.924Z,95807.28
2022-11-01T10:10:59.805Z,95801.50
2022-11-01T10:13:37.529Z,95798.81
2022-11-01T10:16:29.040Z,95799.47
2022-11-01T10:19:04.573Z,95804.22
2022-11-01T10:21:43.049Z,95796.59
2022-11-01T10:24:35.001Z,95789.16
2022-11-01T10:27:24.725Z,95797.03
2022-11-01T10:30:06.178Z,95795.53
2022-11-01T10:32:36.261Z,95787.16
2022-11-01T10:35:12.245Z,95793.34
2022-11-01T10:38:03.993Z,95781.00
2022-11-01T10:40:46.656Z,95777.75
2022-11-01T10:43:17.146Z,95782.72
2022-11-01T10:45:47.723Z,95776.84
2022-11-01T10:48:33.091Z,95769.94
2022-11-01T10:51:03.813Z,95764.16
2022-11-01T10:53:35.645Z,95764.44
2022-11-01T10:56:09.101Z,95745.78
2022-11-01T10:58:35.905Z,95760.66
2022-11-01T11:01:05.416Z,95756.81
2022-11-01T11:03:33.059Z,95742.75
2022-11-01T11:06:07.297Z,95744.47
2022-11-01T11:08:36.432Z,95736.72
2022-11-01T11:11:07.818Z,95733.94
2022-11-01T11:13:35.235Z,95740.66
2022-11-01T11:16:06.206Z,95741.28
2022-11-01T11:18:38.935Z,95730.34
2022-11-01T11:21:11.706Z,95723.75
2022-11-01T11:23:46.519Z,95727.75
2022-11-01T11:26:17.707Z,95710.88
2022-11-01T11:28:55.084Z,95722.03
2022-11-01T11:31:28.741Z,95716.53
2022-11-01T11:34:06.578Z,95719.50
2022-11-01T11:36:42.046Z,95716.38
2022-11-01T11:39:25.030Z,95717.47
2022-11-01T11:41:51.966Z,95699.66
2022-11-01T11:44:43.321Z,95709.22
2022-11-01T11:47:36.776Z,95705.25
2022-11-01T11:50:37.865Z,95694.19
2022-11-01T11:53:18.355Z,95679.19
2022-11-01T11:55:52.671Z,95691.94
2022-11-01T11:58:40.600Z,95690.41
2022-11-01T12:01:08.505Z,95685.84
2022-11-01T12:03:58.094Z,95678.22
2022-11-01T12:06:29.838Z,95663.56
2022-11-01T12:09:00.916Z,95678.44
2022-11-01T12:11:45.100Z,95671.00
2022-11-01T12:14:34.562Z,95664.13
2022-11-01T12:17:01.522Z,95675.22
2022-11-01T12:19:30.927Z,95663.41
2022-11-01T12:22:01.577Z,95648.06
2022-11-01T12:24:36.523Z,95651.25
2022-11-01T12:27:07.205Z,95647.56
2022-11-01T12:29:40.927Z,95647.44
2022-11-01T12:32:59.881Z,95638.88
2022-11-01T12:35:29.521Z,95630.53
2022-11-01T12:38:33.952Z,95634.09
2022-11-01T12:41:15.868Z,95626.13
2022-11-01T12:43:54.936Z,95630.63
2022-11-01T12:46:35.759Z,95622.72
2022-11-01T12:49:12.170Z,95633.38
2022-11-01T12:51:52.639Z,95630.41
2022-11-01T12:54:35.001Z,95628.31
2022-11-01T12:57:02.458Z,95631.16
2022-11-01T12:59:37.112Z,95633.44
2022-11-01T13:02:40.533Z,95632.59
2022-11-01T13:05:22.324Z,95620.91
2022-11-01T13:07:59.838Z,95617.13
2022-11-01T13:10:33.388Z,95627.63
2022-11-01T13:13:27.867Z,95620.09
2022-11-01T13:15:58.210Z,95625.22
2022-11-01T13:18:55.573Z,95615.66
2022-11-01T13:21:49.893Z,95621.00
2022-11-01T13:24:30.002Z,95609.38
2022-11-01T13:27:10.707Z,95637.47
2022-11-01T13:29:54.116Z,95620.69
2022-11-01T13:32:42.903Z,95622.25
2022-11-01T13:35:15.276Z,95627.19
2022-11-01T13:38:03.274Z,95622.34
2022-11-01T13:41:02.284Z,95624.84
2022-11-01T13:43:39.940Z,95619.84
2022-11-01T13:46:45.722Z,95623.06
2022-11-01T13:49:33.767Z,95622.41
2022-11-01T13:52:28.704Z,95614.22
2022-11-01T13:55:17.103Z,95623.31
2022-11-01T13:57:45.245Z,95612.84
2022-11-01T14:00:35.318Z,95620.69
2022-11-01T14:03:20.295Z,95606.78
2022-11-01T14:06:07.870Z,95613.47
2022-11-01T14:08:42.492Z,95603.06
2022-11-01T14:11:33.364Z,95606.94
2022-11-01T14:14:00.296Z,95606.19
2022-11-01T14:16:28.234Z,95609.84
2022-11-01T14:19:04.048Z,95611.44
2022-11-01T14:21:48.718Z,95603.53
2022-11-01T14:24:22.494Z,95608.25
2022-11-01T14:27:00.945Z,95604.13
2022-11-01T14:29:30.238Z,95598.47
2022-11-01T14:31:58.655Z,95602.56
2022-11-01T14:34:29.014Z,95604.56
2022-11-01T14:37:00.552Z,95601.28
2022-11-01T14:39:43.236Z,95600.72
2022-11-01T14:42:16.021Z,95601.16
2022-11-01T14:44:50.452Z,95608.38
2022-11-01T14:47:29.880Z,95611.19
2022-11-01T14:49:59.231Z,95598.91
2022-11-01T14:52:36.012Z,95610.81
2022-11-01T14:55:13.503Z,95609.84
2022-11-01T14:57:40.793Z,95613.31
2022-11-01T15:00:40.287Z,95615.75
2022-11-01T15:03:09.703Z,95610.22
2022-11-01T15:05:50.836Z,95613.25
2022-11-01T15:08:40.525Z,95615.28
2022-11-01T15:11:08.182Z,95609.84
2022-11-01T15:13:40.804Z,95614.72
2022-11-01T15:16:19.560Z,95616.81
2022-11-01T15:19:14.951Z,95609.63
2022-11-01T15:21:46.946Z,95619.78
2022-11-01T15:24:23.988Z,95620.69
2022-11-01T15:26:51.312Z,95618.09
2022-11-01T15:29:20.192Z,95625.06
2022-11-01T15:31:51.871Z,95617.19
2022-11-01T15:34:34.442Z,95626.53
2022-11-01T15:37:21.671Z,95619.69
2022-11-01T15:39:49.455Z,95626.41
2022-11-01T15:42:20.568Z,95631.00
2022-11-01T15:44:47.863Z,95633.88
2022-11-01T15:47:21.330Z,95630.59
2022-11-01T15:49:48.368Z,95645.72
2022-11-01T15:52:21.913Z,95646.44
2022-11-01T15:54:54.422Z,95620.63
2022-11-01T15:57:26.233Z,95639.81
2022-11-01T16:00:08.483Z,95641.16
2022-11-01T16:03:03.963Z,95644.13
2022-11-01T16:05:37.129Z,95641.16
2022-11-01T16:08:09.248Z,95653.41
2022-11-01T16:10:36.672Z,95657.25
2022-11-01T16:13:05.824Z,95659.22
2022-11-01T16:15:35.602Z,95656.53
2022-11-01T16:18:16.085Z,95658.41
2022-11-01T16:20:47.196Z,95661.25
2022-11-01T16:23:31.466Z,95667.09
2022-11-01T16:26:07.588Z,95661.31
2022-11-01T16:28:40.284Z,95677.19
2022-11-01T16:31:33.434Z,95664.78
2022-11-01T16:34:00.514Z,95668.56
2022-11-01T16:36:36.320Z,95666.53
2022-11-01T16:39:25.180Z,95677.53
2022-11-01T16:41:52.778Z,95678.94
2022-11-01T16:44:20.387Z,95677.53
2022-11-01T16:46:47.470Z,95675.47
2022-11-01T16:49:14.130Z,95680.50
2022-11-01T16:51:41.667Z,95686.50
2022-11-01T16:54:12.857Z,95680.53
2022-11-01T16:56:51.511Z,95685.56
2022-11-01T16:59:21.591Z,95684.13
2022-11-01T17:01:49.384Z,95691.72
2022-11-01T17:04:18.510Z,95690.28
2022-11-01T17:06:45.370Z,95692.63
2022-11-01T17:09:14.412Z,95682.72
2022-11-01T17:11:46.389Z,95681.47
2022-11-01T17:14:21.995Z,95686.19
2022-11-01T17:16:51.056Z,95682.41
2022-11-01T17:19:26.145Z,95695.44
2022-11-01T17:21:54.220Z,95697.66
2022-11-01T17:24:23.028Z,95695.72
2022-11-01T17:26:51.367Z,95691.91
2022-11-01T17:29:18.246Z,95690.41
2022-11-01T17:31:45.026Z,95698.94
2022-11-01T17:34:11.859Z,95690.75
2022-11-01T17:36:43.477Z,95692.47
2022-11-01T17:39:11.214Z,95691.81
2022-11-01T17:41:39.357Z,95702.03
2022-11-01T17:44:06.672Z,95702.31
2022-11-01T17:46:33.391Z,95697.13
2022-11-01T17:49:00.674Z,95695.72
2022-11-01T17:51:27.541Z,95695.16
2022-11-01T17:53:55.501Z,95697.81
2022-11-01T17:56:24.296Z,95699.03
2022-11-01T17:58:53.675Z,95698.56
2022-11-01T18:01:21.733Z,95708.00
2022-11-01T18:03:49.435Z,95699.53
2022-11-01T18:06:16.953Z,95705.13
2022-11-01T18:08:49.706Z,95703.91
2022-11-01T18:11:40.032Z,95700.78
2022-11-01T18:14:15.525Z,95710.25
2022-11-01T18:16:48.719Z,95712.72
2022-11-01T18:19:24.807Z,95703.16
2022-11-01T18:22:10.032Z,95706.13
2022-11-01T18:24:57.425Z,95711.75
2022-11-01T18:27:34.177Z,95708.28
2022-11-01T18:30:07.656Z,95707.41
2022-11-01T18:32:48.816Z,95718.69
2022-11-01T18:35:32.162Z,95716.69
2022-11-01T18:38:17.925Z,95720.09
2022-11-01T18:41:05.456Z,95729.75
2022-11-01T18:43:37.937Z,95721.31
2022-11-01T18:46:26.327Z,95727.28
2022-11-01T18:49:02.092Z,95747.53
2022-11-01T18:51:31.304Z,95738.59
2022-11-01T18:54:11.028Z,95738.78
2022-11-01T18:56:39.589Z,95748.41
2022-11-01T18:59:35.590Z,95744.91
2022-11-01T19:02:27.968Z,95747.63
2022-11-01T19:05:13.990Z,95750.38
2022-11-01T19:08:09.134Z,95755.09
2022-11-01T19:10:28.637Z,95752.75
2022-11-01T19:12:56.154Z,95752.91
2022-11-01T19:15:28.482Z,95759.03
2022-11-01T19:18:00.546Z,95755.88
2022-11-01T19:20:30.249Z,95754.59
2022-11-01T19:23:02.484Z,95763.00
2022-11-01T19:25:35.177Z,95763.91
2022-11-01T19:28:05.988Z,95755.31
2022-11-01T19:30:33.622Z,95751.88
2022-11-01T19:33:33.091Z,95763.81
2022-11-01T19:36:04.489Z,95752.72
2022-11-01T19:38:31.674Z,95757.72
2022-11-01T19:40:59.003Z,95764.16
2022-11-01T19:43:27.470Z,95762.91
2022-11-01T19:45:56.928Z,95765.06
2022-11-01T19:48:28.249Z,95770.81
2022-11-01T19:50:55.430Z,95768.22
2022-11-01T19:53:28.001Z,95765.03
2022-11-01T19:56:05.274Z,95766.16
2022-11-01T19:58:48.974Z,95768.16
2022-11-01T20:01:22.978Z,95774.13
2022-11-01T20:04:02.442Z,95762.41
2022-11-01T20:06:36.066Z,95769.78
2022-11-01T20:09:09.247Z,95776.97
2022-11-01T20:11:36.057Z,95777.81
2022-11-01T20:14:03.259Z,95771.66
2022-11-01T20:16:30.002Z,95778.41
2022-11-01T20:18:56.989Z,95778.19
2022-11-01T20:21:23.844Z,95776.28
2022-11-01T20:23:50.775Z,95775.91
2022-11-01T20:26:17.639Z,95774.63
2022-11-01T20:28:44.580Z,95781.91
2022-11-01T20:31:11.478Z,95778.84
2022-11-01T20:33:38.465Z,95782.84
2022-11-01T20:36:10.768Z,95775.78
2022-11-01T20:38:39.153Z,95784.81
2022-11-01T20:41:06.160Z,95787.91
2022-11-01T20:43:33.082Z,95782.53
2022-11-01T20:46:00.070Z,95777.84
2022-11-01T20:48:27.278Z,95779.00
2022-11-01T20:50:53.997Z,95781.97
2022-11-01T20:53:21.522Z,95774.97
2022-11-01T20:55:50.833Z,95777.81
2022-11-01T20:58:18.013Z,95782.72
2022-11-01T21:00:45.255Z,95782.38
2022-11-01T21:03:17.911Z,95785.50
2022-11-01T21:05:46.836Z,95787.88
2022-11-01T21:08:26.804Z,95790.59
2022-11-01T21:11:02.812Z,95789.56
2022-11-01T21:13:39.105Z,95785.97
2022-11-01T21:16:16.249Z,95790.91
2022-11-01T21:18:45.747Z,95790.47
2022-11-01T21:21:15.418Z,95791.09
2022-11-01T21:23:44.654Z,95793.97
2022-11-01T21:26:17.439Z,95790.56
2022-11-01T21:28:46.872Z,95789.00
2022-11-01T21:31:13.450Z,95791.16
2022-11-01T21:33:50.114Z,95778.78
2022-11-01T21:36:19.831Z,95787.41
2022-11-01T21:38:48.811Z,95789.59
2022-11-01T21:41:31.776Z,95787.81
2022-11-01T21:44:20.521Z,95785.13
2022-11-01T21:47:00.895Z,95787.03
2022-11-01T21:49:31.877Z,95790.56
2022-11-01T21:52:01.923Z,95785.41
2022-11-01T21:54:31.492Z,95792.28
2022-11-01T21:56:58.287Z,95791.56
2022-11-01T21:59:26.112Z,95786.78
2022-11-01T22:01:54.008Z,95767.72
2022-11-01T22:04:23.448Z,95780.00
2022-11-01T22:06:50.543Z,95775.84
2022-11-01T22:09:18.515Z,95775.13
2022-11-01T22:11:45.369Z,95777.97
2022-11-01T22:14:12.668Z,95775.38
2022-11-01T22:16:39.934Z,95773.34
2022-11-01T22:19:07.417Z,95770.06
2022-11-01T22:21:34.379Z,95770.59
2022-11-01T22:24:01.380Z,95773.13
2022-11-01T22:26:28.287Z,95790.72
2022-11-01T22:28:55.625Z,95790.22
2022-11-01T22:31:23.116Z,95788.88
2022-11-01T22:33:54.734Z,95783.84
2022-11-01T22:36:30.039Z,95787.25
2022-11-01T22:38:59.000Z,95781.91
2022-11-01T22:41:29.926Z,95773.63
2022-11-01T22:44:03.880Z,95776.72
2022-11-01T22:46:44.944Z,95773.16
2022-11-01T22:49:47.263Z,95778.34
2022-11-01T22:52:26.766Z,95769.84
2022-11-01T22:55:06.904Z,95769.50
2022-11-01T22:57:36.431Z,95771.09
2022-11-01T23:00:30.872Z,95769.72
2022-11-01T23:03:14.817Z,95757.47
2022-11-01T23:05:42.808Z,95761.59
2022-11-01T23:08:26.128Z,95766.81
2022-11-01T23:10:53.153Z,95770.28
2022-11-01T23:13:50.117Z,95758.59
2022-11-01T23:16:17.015Z,95764.69
2022-11-01T23:18:43.993Z,95762.06
2022-11-01T23:21:11.051Z,95757.31
2022-11-01T23:23:41.936Z,95761.53
2022-11-01T23:26:09.584Z,95766.88
2022-11-01T23:28:40.367Z,95769.06
2022-11-01T23:31:07.632Z,95761.13
2022-11-01T23:33:39.797Z,95765.38
2022-11-01T23:36:26.961Z,95766.19
2022-11-01T23:39:12.315Z,95768.56
2022-11-01T23:41:44.195Z,95769.63
2022-11-01T23:44:20.847Z,95755.84
2022-11-01T23:46:47.778Z,95764.31
2022-11-01T23:49:23.947Z,95762.19
2022-11-01T23:51:51.720Z,95768.31
2022-11-01T23:54:26.942Z,95768.50
2022-11-01T23:56:54.931Z,95768.00
2022-11-01T23:59:21.747Z,95763.81
